ADDS METAR Data INFO
IDs: Format: Raw Decoded Include TAF

Data at: 0142 UTC 19 Oct 2017

METAR for:KEDC (Austin/Executive Arp, TX, US)
Text:KEDC 190135Z AUTO 00000KT 10SM CLR 20/09 A3011 RMK AO2
Temperature: 20.0°C ( 68°F)
Dewpoint: 9.0°C ( 48°F) [RH = 49%]
Pressure (altimeter):30.11 inches Hg (1019.7 mb)
Winds:calm
Visibility:10 or more sm (16+ km)
Ceiling:at least 12,000 feet AGL
Clouds:sky clear below 12,000 feet AGL
QC Flag:automated observation with no human augmentation